sensor_id;sensor_type;location;lat;lon;timestamp;pressure;altitude;pressure_sealevel;temperature;humidity
14242;BME280;7205;50.864;12.766;2023-04-15T00:00:36;96572.31;;;7.43;100.00
14242;BME280;7205;50.864;12.766;2023-04-15T00:03:03;96575.94;;;7.42;100.00
14242;BME280;7205;50.864;12.766;2023-04-15T00:05:31;96570.22;;;7.39;100.00
14242;BME280;7205;50.864;12.766;2023-04-15T00:07:59;96563.72;;;7.35;100.00
14242;BME280;7205;50.864;12.766;2023-04-15T00:10:27;96566.50;;;7.33;100.00
14242;BME280;7205;50.864;12.766;2023-04-15T00:12:54;96566.69;;;7.32;100.00
14242;BME280;7205;50.864;12.766;2023-04-15T00:15:21;96564.06;;;7.32;100.00
14242;BME280;7205;50.864;12.766;2023-04-15T00:17:50;96563.28;;;7.31;100.00
14242;BME280;7205;50.864;12.766;2023-04-15T00:20:17;96552.78;;;7.31;100.00
14242;BME280;7205;50.864;12.766;2023-04-15T00:22:44;96556.84;;;7.34;100.00
14242;BME280;7205;50.864;12.766;2023-04-15T00:25:11;96560.09;;;7.36;100.00
14242;BME280;7205;50.864;12.766;2023-04-15T00:27:41;96559.09;;;7.37;100.00
14242;BME280;7205;50.864;12.766;2023-04-15T00:30:08;96554.22;;;7.34;100.00
14242;BME280;7205;50.864;12.766;2023-04-15T00:32:36;96562.09;;;7.34;100.00
14242;BME280;7205;50.864;12.766;2023-04-15T00:35:05;96550.75;;;7.33;100.00
14242;BME280;7205;50.864;12.766;2023-04-15T00:37:31;96557.03;;;7.32;100.00
14242;BME280;7205;50.864;12.766;2023-04-15T00:39:59;96561.44;;;7.32;100.00
14242;BME280;7205;50.864;12.766;2023-04-15T00:42:27;96551.13;;;7.30;100.00
14242;BME280;7205;50.864;12.766;2023-04-15T00:44:54;96551.50;;;7.27;100.00
14242;BME280;7205;50.864;12.766;2023-04-15T00:47:21;96558.38;;;7.28;100.00
14242;BME280;7205;50.864;12.766;2023-04-15T00:49:48;96550.50;;;7.28;100.00
14242;BME280;7205;50.864;12.766;2023-04-15T00:52:18;96547.72;;;7.30;100.00
14242;BME280;7205;50.864;12.766;2023-04-15T00:54:47;96546.06;;;7.29;100.00
14242;BME280;7205;50.864;12.766;2023-04-15T00:57:15;96545.25;;;7.28;100.00
14242;BME280;7205;50.864;12.766;2023-04-15T00:59:42;96540.19;;;7.27;100.00
14242;BME280;7205;50.864;12.766;2023-04-15T01:02:09;96542.00;;;7.26;100.00
14242;BME280;7205;50.864;12.766;2023-04-15T01:04:36;96550.88;;;7.25;100.00
14242;BME280;7205;50.864;12.766;2023-04-15T01:07:03;96547.25;;;7.26;100.00
14242;BME280;7205;50.864;12.766;2023-04-15T01:09:31;96542.97;;;7.25;100.00
14242;BME280;7205;50.864;12.766;2023-04-15T01:11:59;96544.44;;;7.28;100.00
14242;BME280;7205;50.864;12.766;2023-04-15T01:14:27;96544.25;;;7.29;100.00
14242;BME280;7205;50.864;12.766;2023-04-15T01:16:54;96544.25;;;7.29;100.00
14242;BME280;7205;50.864;12.766;2023-04-15T01:19:22;96535.75;;;7.27;100.00
14242;BME280;7205;50.864;12.766;2023-04-15T01:21:48;96535.94;;;7.26;100.00
14242;BME280;7205;50.864;12.766;2023-04-15T01:24:17;96531.69;;;7.25;100.00
14242;BME280;7205;50.864;12.766;2023-04-15T01:26:47;96535.94;;;7.26;100.00
14242;BME280;7205;50.864;12.766;2023-04-15T01:29:14;96534.94;;;7.27;100.00
14242;BME280;7205;50.864;12.766;2023-04-15T01:31:48;96529.84;;;7.25;100.00
14242;BME280;7205;50.864;12.766;2023-04-15T01:34:16;96529.84;;;7.25;100.00
14242;BME280;7205;50.864;12.766;2023-04-15T01:36:45;96530.88;;;7.24;100.00
14242;BME280;7205;50.864;12.766;2023-04-15T01:39:13;96525.63;;;7.24;100.00
14242;BME280;7205;50.864;12.766;2023-04-15T01:41:42;96519.53;;;7.24;100.00
14242;BME280;7205;50.864;12.766;2023-04-15T01:44:10;96518.56;;;7.25;100.00
14242;BME280;7205;50.864;12.766;2023-04-15T01:46:38;96514.28;;;7.24;100.00
14242;BME280;7205;50.864;12.766;2023-04-15T01:49:05;96513.47;;;7.23;100.00
14242;BME280;7205;50.864;12.766;2023-04-15T01:51:32;96500.72;;;7.20;100.00
14242;BME280;7205;50.864;12.766;2023-04-15T01:53:59;96504.34;;;7.19;100.00
14242;BME280;7205;50.864;12.766;2023-04-15T01:56:25;96505.31;;;7.18;100.00
14242;BME280;7205;50.864;12.766;2023-04-15T01:58:52;96507.94;;;7.18;100.00
14242;BME280;7205;50.864;12.766;2023-04-15T02:01:21;96503.72;;;7.17;100.00
14242;BME280;7205;50.864;12.766;2023-04-15T02:03:47;96495.00;;;7.17;100.00
14242;BME280;7205;50.864;12.766;2023-04-15T02:06:14;96490.59;;;7.17;100.00
14242;BME280;7205;50.864;12.766;2023-04-15T02:08:41;96497.44;;;7.18;100.00
14242;BME280;7205;50.864;12.766;2023-04-15T02:11:08;96488.78;;;7.18;100.00
14242;BME280;7205;50.864;12.766;2023-04-15T02:13:35;96492.19;;;7.18;100.00
14242;BME280;7205;50.864;12.766;2023-04-15T02:16:02;96486.94;;;7.18;100.00
14242;BME280;7205;50.864;12.766;2023-04-15T02:18:30;96484.50;;;7.17;100.00
14242;BME280;7205;50.864;12.766;2023-04-15T02:20:57;96478.47;;;7.16;100.00
14242;BME280;7205;50.864;12.766;2023-04-15T02:23:24;96484.50;;;7.17;100.00
14242;BME280;7205;50.864;12.766;2023-04-15T02:25:51;96484.50;;;7.17;100.00
14242;BME280;7205;50.864;12.766;2023-04-15T02:28:17;96484.50;;;7.17;100.00
14242;BME280;7205;50.864;12.766;2023-04-15T02:30:46;96481.09;;;7.16;100.00
14242;BME280;7205;50.864;12.766;2023-04-15T02:33:13;96477.47;;;7.17;100.00
14242;BME280;7205;50.864;12.766;2023-04-15T02:35:42;96478.47;;;7.16;100.00
14242;BME280;7205;50.864;12.766;2023-04-15T02:38:10;96471.56;;;7.15;100.00
14242;BME280;7205;50.864;12.766;2023-04-15T02:40:37;96470.78;;;7.15;100.00
14242;BME280;7205;50.864;12.766;2023-04-15T02:43:03;96466.50;;;7.14;100.00
14242;BME280;7205;50.864;12.766;2023-04-15T02:45:32;96464.91;;;7.13;100.00
14242;BME280;7205;50.864;12.766;2023-04-15T02:48:01;96477.00;;;7.14;100.00
14242;BME280;7205;50.864;12.766;2023-04-15T02:50:30;96480.66;;;7.13;100.00
14242;BME280;7205;50.864;12.766;2023-04-15T02:52:59;96471.13;;;7.12;100.00
14242;BME280;7205;50.864;12.766;2023-04-15T02:55:27;96478.53;;;7.08;100.00
14242;BME280;7205;50.864;12.766;2023-04-15T02:57:54;96472.50;;;7.08;100.00
14242;BME280;7205;50.864;12.766;2023-04-15T03:00:22;96473.84;;;7.04;100.00
14242;BME280;7205;50.864;12.766;2023-04-15T03:02:50;96474.84;;;7.03;100.00
14242;BME280;7205;50.864;12.766;2023-04-15T03:05:21;96474.84;;;7.03;100.00
14242;BME280;7205;50.864;12.766;2023-04-15T03:07:49;96476.47;;;7.04;100.00
14242;BME280;7205;50.864;12.766;2023-04-15T03:10:19;96484.81;;;7.07;100.00
14242;BME280;7205;50.864;12.766;2023-04-15T03:12:46;96490.06;;;7.07;100.00
14242;BME280;7205;50.864;12.766;2023-04-15T03:15:16;96491.50;;;7.10;100.00
14242;BME280;7205;50.864;12.766;2023-04-15T03:17:47;96485.25;;;7.11;100.00
14242;BME280;7205;50.864;12.766;2023-04-15T03:20:15;96490.50;;;7.11;100.00
14242;BME280;7205;50.864;12.766;2023-04-15T03:22:42;96497.38;;;7.12;100.00
14242;BME280;7205;50.864;12.766;2023-04-15T03:25:09;96495.75;;;7.11;100.00
14242;BME280;7205;50.864;12.766;2023-04-15T03:27:38;96492.94;;;7.12;100.00
14242;BME280;7205;50.864;12.766;2023-04-15T03:30:06;96476.19;;;7.13;100.00
14242;BME280;7205;50.864;12.766;2023-04-15T03:32:36;96473.56;;;7.13;100.00
14242;BME280;7205;50.864;12.766;2023-04-15T03:35:05;96474.38;;;7.14;100.00
14242;BME280;7205;50.864;12.766;2023-04-15T03:37:32;96476.19;;;7.13;100.00
14242;BME280;7205;50.864;12.766;2023-04-15T03:39:59;96471.75;;;7.14;100.00
14242;BME280;7205;50.864;12.766;2023-04-15T03:42:26;96471.56;;;7.15;100.00
14242;BME280;7205;50.864;12.766;2023-04-15T03:44:54;96469.97;;;7.14;100.00
14242;BME280;7205;50.864;12.766;2023-04-15T03:47:21;96471.75;;;7.14;100.00
14242;BME280;7205;50.864;12.766;2023-04-15T03:49:48;96471.75;;;7.14;100.00
14242;BME280;7205;50.864;12.766;2023-04-15T03:52:14;96475.03;;;7.16;100.00
14242;BME280;7205;50.864;12.766;2023-04-15T03:54:41;96472.22;;;7.17;100.00
14242;BME280;7205;50.864;12.766;2023-04-15T03:57:08;96473.22;;;7.16;100.00
14242;BME280;7205;50.864;12.766;2023-04-15T03:59:35;96463.69;;;7.15;100.00
14242;BME280;7205;50.864;12.766;2023-04-15T04:02:03;96462.91;;;7.15;100.00
14242;BME280;7205;50.864;12.766;2023-04-15T04:04:30;96460.28;;;7.15;100.00
14242;BME280;7205;50.864;12.766;2023-04-15T04:06:57;96474.19;;;7.15;100.00
14242;BME280;7205;50.864;12.766;2023-04-15T04:09:23;96473.41;;;7.15;100.00
14242;BME280;7205;50.864;12.766;2023-04-15T04:11:50;96467.97;;;7.16;100.00
14242;BME280;7205;50.864;12.766;2023-04-15T04:14:17;96468.75;;;7.17;100.00
14242;BME280;7205;50.864;12.766;2023-04-15T04:16:44;96469.41;;;7.19;100.00
14242;BME280;7205;50.864;12.766;2023-04-15T04:19:12;96469.41;;;7.19;100.00
14242;BME280;7205;50.864;12.766;2023-04-15T04:21:39;96461.72;;;7.17;100.00
14242;BME280;7205;50.864;12.766;2023-04-15T04:24:06;96472.22;;;7.17;100.00
14242;BME280;7205;50.864;12.766;2023-04-15T04:26:32;96470.41;;;7.18;100.00
14242;BME280;7205;50.864;12.766;2023-04-15T04:28:59;96468.75;;;7.17;100.00
14242;BME280;7205;50.864;12.766;2023-04-15T04:31:26;96477.28;;;7.19;100.00
14242;BME280;7205;50.864;12.766;2023-04-15T04:33:53;96478.09;;;7.19;100.00
14242;BME280;7205;50.864;12.766;2023-04-15T04:36:21;96475.28;;;7.21;100.00
14242;BME280;7205;50.864;12.766;2023-04-15T04:38:48;96482.16;;;7.22;100.00
14242;BME280;7205;50.864;12.766;2023-04-15T04:41:15;96483.81;;;7.23;100.00
14242;BME280;7205;50.864;12.766;2023-04-15T04:43:42;96478.75;;;7.21;100.00
14242;BME280;7205;50.864;12.766;2023-04-15T04:46:09;96484.00;;;7.21;100.00
14242;BME280;7205;50.864;12.766;2023-04-15T04:48:36;96484.00;;;7.21;100.00
14242;BME280;7205;50.864;12.766;2023-04-15T04:51:03;96489.06;;;7.23;100.00
14242;BME280;7205;50.864;12.766;2023-04-15T04:53:32;96489.84;;;7.23;100.00
14242;BME280;7205;50.864;12.766;2023-04-15T04:55:58;96482.97;;;7.22;100.00
14242;BME280;7205;50.864;12.766;2023-04-15T04:58:25;96485.78;;;7.21;100.00
14242;BME280;7205;50.864;12.766;2023-04-15T05:00:52;96478.09;;;7.19;100.00
14242;BME280;7205;50.864;12.766;2023-04-15T05:03:19;96484.19;;;7.20;100.00
14242;BME280;7205;50.864;12.766;2023-04-15T05:05:46;96495.84;;;7.17;100.00
14242;BME280;7205;50.864;12.766;2023-04-15T05:08:13;96494.41;;;7.15;100.00
14242;BME280;7205;50.864;12.766;2023-04-15T05:10:41;96489.94;;;7.15;100.00
14242;BME280;7205;50.864;12.766;2023-04-15T05:13:08;96478.53;;;7.08;100.00
14242;BME280;7205;50.864;12.766;2023-04-15T05:15:35;96471.41;;;7.02;100.00
14242;BME280;7205;50.864;12.766;2023-04-15T05:18:04;96474.66;;;7.04;100.00
14242;BME280;7205;50.864;12.766;2023-04-15T05:20:31;96472.94;;;6.97;100.00
14242;BME280;7205;50.864;12.766;2023-04-15T05:22:57;96473.75;;;6.97;100.00
14242;BME280;7205;50.864;12.766;2023-04-15T05:25:24;96466.06;;;6.96;100.00
14242;BME280;7205;50.864;12.766;2023-04-15T05:27:52;96472.16;;;6.96;100.00
14242;BME280;7205;50.864;12.766;2023-04-15T05:30:19;96469.44;;;6.90;100.00
14242;BME280;7205;50.864;12.766;2023-04-15T05:32:46;96477.03;;;6.99;100.00
14242;BME280;7205;50.864;12.766;2023-04-15T05:35:13;96469.53;;;6.96;100.00
14242;BME280;7205;50.864;12.766;2023-04-15T05:37:40;96474.03;;;7.02;100.00
14242;BME280;7205;50.864;12.766;2023-04-15T05:40:07;96474.50;;;7.06;100.00
14242;BME280;7205;50.864;12.766;2023-04-15T05:42:35;96477.75;;;7.08;100.00
14242;BME280;7205;50.864;12.766;2023-04-15T05:45:04;96476.09;;;7.07;100.00
14242;BME280;7205;50.864;12.766;2023-04-15T05:47:33;96482.00;;;7.09;100.00
14242;BME280;7205;50.864;12.766;2023-04-15T05:50:00;96482.38;;;7.06;100.00
14242;BME280;7205;50.864;12.766;2023-04-15T05:52:27;96494.22;;;7.02;100.00
14242;BME280;7205;50.864;12.766;2023-04-15T05:54:54;96490.34;;;6.98;100.00
14242;BME280;7205;50.864;12.766;2023-04-15T05:57:21;96497.66;;;7.02;100.00
14242;BME280;7205;50.864;12.766;2023-04-15T05:59:48;96496.31;;;7.06;100.00
14242;BME280;7205;50.864;12.766;2023-04-15T06:02:18;96484.53;;;7.02;100.00
14242;BME280;7205;50.864;12.766;2023-04-15T06:04:44;96507.25;;;7.10;100.00
14242;BME280;7205;50.864;12.766;2023-04-15T06:07:11;96504.53;;;7.18;100.00
14242;BME280;7205;50.864;12.766;2023-04-15T06:09:38;96499.00;;;7.13;100.00
14242;BME280;7205;50.864;12.766;2023-04-15T06:12:05;96500.81;;;7.12;100.00
14242;BME280;7205;50.864;12.766;2023-04-15T06:14:36;96492.13;;;7.12;100.00
14242;BME280;7205;50.864;12.766;2023-04-15T06:17:03;96487.50;;;7.14;100.00
14242;BME280;7205;50.864;12.766;2023-04-15T06:19:31;96496.22;;;7.14;100.00
14242;BME280;7205;50.864;12.766;2023-04-15T06:21:58;96507.50;;;7.29;100.00
14242;BME280;7205;50.864;12.766;2023-04-15T06:24:25;96518.91;;;7.36;100.00
14242;BME280;7205;50.864;12.766;2023-04-15T06:26:52;96510.66;;;7.39;100.00
14242;BME280;7205;50.864;12.766;2023-04-15T06:29:18;96523.59;;;7.41;100.00
14242;BME280;7205;50.864;12.766;2023-04-15T06:31:46;96533.56;;;7.45;100.00
14242;BME280;7205;50.864;12.766;2023-04-15T06:34:13;96533.63;;;7.52;100.00
14242;BME280;7205;50.864;12.766;2023-04-15T06:36:41;96529.91;;;7.61;100.00
14242;BME280;7205;50.864;12.766;2023-04-15T06:39:08;96527.00;;;7.71;100.00
14242;BME280;7205;50.864;12.766;2023-04-15T06:41:35;96523.00;;;7.75;100.00
14242;BME280;7205;50.864;12.766;2023-04-15T06:44:02;96526.91;;;7.79;100.00
14242;BME280;7205;50.864;12.766;2023-04-15T06:46:28;96536.84;;;7.83;100.00
14242;BME280;7205;50.864;12.766;2023-04-15T06:48:55;96540.56;;;7.89;100.00
14242;BME280;7205;50.864;12.766;2023-04-15T06:51:22;96538.97;;;7.94;100.00
14242;BME280;7205;50.864;12.766;2023-04-15T06:53:50;96530.38;;;8.00;100.00
14242;BME280;7205;50.864;12.766;2023-04-15T06:56:17;96535.06;;;8.05;100.00
14242;BME280;7205;50.864;12.766;2023-04-15T06:58:44;96531.69;;;8.11;100.00
14242;BME280;7205;50.864;12.766;2023-04-15T07:01:12;96534.56;;;8.16;100.00
14242;BME280;7205;50.864;12.766;2023-04-15T07:03:39;96531.38;;;8.20;100.00
14242;BME280;7205;50.864;12.766;2023-04-15T07:06:07;96536.28;;;8.23;100.00
14242;BME280;7205;50.864;12.766;2023-04-15T07:08:34;96538.94;;;8.23;100.00
14242;BME280;7205;50.864;12.766;2023-04-15T07:11:02;96541.72;;;8.22;100.00
14242;BME280;7205;50.864;12.766;2023-04-15T07:13:30;96532.38;;;8.19;100.00
14242;BME280;7205;50.864;12.766;2023-04-15T07:15:57;96533.56;;;8.17;100.00
14242;BME280;7205;50.864;12.766;2023-04-15T07:18:24;96524.66;;;8.18;100.00
14242;BME280;7205;50.864;12.766;2023-04-15T07:20:51;96536.47;;;8.22;100.00
14242;BME280;7205;50.864;12.766;2023-04-15T07:23:18;96530.84;;;8.25;100.00
14242;BME280;7205;50.864;12.766;2023-04-15T07:25:45;96526.84;;;8.29;100.00
14242;BME280;7205;50.864;12.766;2023-04-15T07:28:13;96542.69;;;8.35;100.00
14242;BME280;7205;50.864;12.766;2023-04-15T07:30:40;96530.13;;;8.37;100.00
14242;BME280;7205;50.864;12.766;2023-04-15T07:33:07;96533.41;;;8.39;100.00
14242;BME280;7205;50.864;12.766;2023-04-15T07:35:34;96541.28;;;8.39;100.00
14242;BME280;7205;50.864;12.766;2023-04-15T07:38:01;96540.31;;;8.40;100.00
14242;BME280;7205;50.864;12.766;2023-04-15T07:40:28;96533.41;;;8.39;100.00
14242;BME280;7205;50.864;12.766;2023-04-15T07:42:55;96537.88;;;8.39;100.00
14242;BME280;7205;50.864;12.766;2023-04-15T07:45:30;96527.91;;;8.34;100.00
14242;BME280;7205;50.864;12.766;2023-04-15T07:47:59;96534.34;;;8.32;100.00
14242;BME280;7205;50.864;12.766;2023-04-15T07:50:26;96544.25;;;8.30;100.00
14242;BME280;7205;50.864;12.766;2023-04-15T07:52:53;96544.25;;;8.30;100.00
14242;BME280;7205;50.864;12.766;2023-04-15T07:55:20;96551.75;;;8.33;100.00
14242;BME280;7205;50.864;12.766;2023-04-15T07:57:48;96551.19;;;8.37;100.00
14242;BME280;7205;50.864;12.766;2023-04-15T08:00:15;96555.72;;;8.43;100.00
14242;BME280;7205;50.864;12.766;2023-04-15T08:02:44;96556.59;;;8.50;100.00
14242;BME280;7205;50.864;12.766;2023-04-15T08:05:12;96556.44;;;8.58;100.00
14242;BME280;7205;50.864;12.766;2023-04-15T08:07:39;96563.19;;;8.67;100.00
14242;BME280;7205;50.864;12.766;2023-04-15T08:10:07;96563.06;;;8.75;100.00
14242;BME280;7205;50.864;12.766;2023-04-15T08:12:34;96552.78;;;8.80;100.00
14242;BME280;7205;50.864;12.766;2023-04-15T08:15:01;96551.00;;;8.87;100.00
14242;BME280;7205;50.864;12.766;2023-04-15T08:17:28;96561.41;;;8.96;100.00
14242;BME280;7205;50.864;12.766;2023-04-15T08:19:56;96550.28;;;9.00;100.00
14242;BME280;7205;50.864;12.766;2023-04-15T08:22:23;96552.97;;;9.07;100.00
14242;BME280;7205;50.864;12.766;2023-04-15T08:24:50;96546.31;;;9.11;100.00
14242;BME280;7205;50.864;12.766;2023-04-15T08:27:16;96552.25;;;9.19;100.00
14242;BME280;7205;50.864;12.766;2023-04-15T08:29:43;96548.44;;;9.28;100.00
14242;BME280;7205;50.864;12.766;2023-04-15T08:32:10;96559.25;;;9.40;100.00
14242;BME280;7205;50.864;12.766;2023-04-15T08:34:37;96562.94;;;9.45;100.00
14242;BME280;7205;50.864;12.766;2023-04-15T08:37:05;96566.41;;;9.46;100.00
14242;BME280;7205;50.864;12.766;2023-04-15T08:39:32;96563.97;;;9.44;100.00
14242;BME280;7205;50.864;12.766;2023-04-15T08:42:00;96565.97;;;9.42;100.00
14242;BME280;7205;50.864;12.766;2023-04-15T08:44:28;96563.53;;;9.41;100.00
14242;BME280;7205;50.864;12.766;2023-04-15T08:46:58;96562.28;;;9.37;100.00
14242;BME280;7205;50.864;12.766;2023-04-15T08:49:28;96557.59;;;9.32;100.00
14242;BME280;7205;50.864;12.766;2023-04-15T08:51:57;96562.25;;;9.30;100.00
14242;BME280;7205;50.864;12.766;2023-04-15T08:54:26;96565.28;;;9.27;100.00
14242;BME280;7205;50.864;12.766;2023-04-15T08:56:53;96562.84;;;9.26;100.00
14242;BME280;7205;50.864;12.766;2023-04-15T08:59:20;96566.25;;;9.26;100.00
14242;BME280;7205;50.864;12.766;2023-04-15T09:01:48;96575.03;;;9.33;100.00
14242;BME280;7205;50.864;12.766;2023-04-15T09:04:16;96578.09;;;9.37;100.00
14242;BME280;7205;50.864;12.766;2023-04-15T09:06:43;96575.69;;;9.42;100.00
14242;BME280;7205;50.864;12.766;2023-04-15T09:09:11;96575.72;;;9.48;100.00
14242;BME280;7205;50.864;12.766;2023-04-15T09:11:40;96583.22;;;9.51;100.00
14242;BME280;7205;50.864;12.766;2023-04-15T09:14:07;96588.31;;;9.53;100.00
14242;BME280;7205;50.864;12.766;2023-04-15T09:16:55;96579.38;;;9.47;100.00
14242;BME280;7205;50.864;12.766;2023-04-15T09:19:23;96577.72;;;9.46;100.00
14242;BME280;7205;50.864;12.766;2023-04-15T09:21:53;96574.09;;;9.47;100.00
14242;BME280;7205;50.864;12.766;2023-04-15T09:24:21;96571.69;;;9.52;100.00
14242;BME280;7205;50.864;12.766;2023-04-15T09:26:53;96580.25;;;9.61;100.00
14242;BME280;7205;50.864;12.766;2023-04-15T09:29:23;96578.50;;;9.74;100.00
14242;BME280;7205;50.864;12.766;2023-04-15T09:31:50;96586.09;;;9.97;100.00
14242;BME280;7205;50.864;12.766;2023-04-15T09:34:17;96592.06;;;10.12;100.00
14242;BME280;7205;50.864;12.766;2023-04-15T09:36:54;96601.81;;;10.18;100.00
14242;BME280;7205;50.864;12.766;2023-04-15T09:39:22;96601.81;;;10.18;100.00
14242;BME280;7205;50.864;12.766;2023-04-15T09:42:06;96600.38;;;10.16;100.00
14242;BME280;7205;50.864;12.766;2023-04-15T09:44:33;96598.78;;;10.15;100.00
14242;BME280;7205;50.864;12.766;2023-04-15T09:47:02;96596.94;;;10.15;100.00
14242;BME280;7205;50.864;12.766;2023-04-15T09:49:29;96601.22;;;10.16;100.00
14242;BME280;7205;50.864;12.766;2023-04-15T09:51:59;96598.78;;;10.21;100.00
14242;BME280;7205;50.864;12.766;2023-04-15T09:54:33;96607.13;;;10.25;100.00
14242;BME280;7205;50.864;12.766;2023-04-15T09:57:06;96616.66;;;10.32;100.00
14242;BME280;7205;50.864;12.766;2023-04-15T09:59:33;96609.78;;;10.31;100.00
14242;BME280;7205;50.864;12.766;2023-04-15T10:02:03;96607.94;;;10.32;100.00
14242;BME280;7205;50.864;12.766;2023-04-15T10:04:35;96600.44;;;10.35;100.00
14242;BME280;7205;50.864;12.766;2023-04-15T10:07:06;96603.50;;;10.39;100.00
14242;BME280;7205;50.864;12.766;2023-04-15T10:09:34;96602.72;;;10.45;100.00
14242;BME280;7205;50.864;12.766;2023-04-15T10:12:02;96605.56;;;10.50;100.00
14242;BME280;7205;50.864;12.766;2023-04-15T10:14:33;96607.41;;;10.56;100.00
14242;BME280;7205;50.864;12.766;2023-04-15T10:17:02;96613.91;;;10.66;100.00
14242;BME280;7205;50.864;12.766;2023-04-15T10:19:35;96616.78;;;10.84;100.00
14242;BME280;7205;50.864;12.766;2023-04-15T10:22:02;96616.38;;;11.07;100.00
14242;BME280;7205;50.864;12.766;2023-04-15T10:24:31;96615.97;;;11.29;100.00
14242;BME280;7205;50.864;12.766;2023-04-15T10:26:59;96611.50;;;11.43;100.00
14242;BME280;7205;50.864;12.766;2023-04-15T10:29:26;96618.38;;;11.51;99.98
14242;BME280;7205;50.864;12.766;2023-04-15T10:31:58;96621.22;;;11.49;98.11
14242;BME280;7205;50.864;12.766;2023-04-15T10:34:26;96613.72;;;11.46;97.32
14242;BME280;7205;50.864;12.766;2023-04-15T10:36:54;96618.19;;;11.46;96.86
14242;BME280;7205;50.864;12.766;2023-04-15T10:39:40;96604.38;;;11.44;95.41
14242;BME280;7205;50.864;12.766;2023-04-15T10:42:08;96598.47;;;11.42;95.40
14242;BME280;7205;50.864;12.766;2023-04-15T10:44:36;96601.34;;;11.40;94.47
14242;BME280;7205;50.864;12.766;2023-04-15T10:47:11;96608.03;;;11.43;94.46
14242;BME280;7205;50.864;12.766;2023-04-15T10:49:46;96608.84;;;11.50;95.05
14242;BME280;7205;50.864;12.766;2023-04-15T10:52:14;96622.03;;;11.63;94.91
14242;BME280;7205;50.864;12.766;2023-04-15T10:54:41;96615.13;;;11.75;95.42
14242;BME280;7205;50.864;12.766;2023-04-15T10:57:13;96611.59;;;11.87;94.40
14242;BME280;7205;50.864;12.766;2023-04-15T11:00:01;96617.69;;;11.94;93.65
14242;BME280;7205;50.864;12.766;2023-04-15T11:02:41;96628.66;;;11.98;91.86
14242;BME280;7205;50.864;12.766;2023-04-15T11:05:09;96619.34;;;11.95;90.83
14242;BME280;7205;50.864;12.766;2023-04-15T11:07:43;96621.56;;;11.92;90.35
14242;BME280;7205;50.864;12.766;2023-04-15T11:13:19;96632.19;;;11.85;89.01
14242;BME280;7205;50.864;12.766;2023-04-15T11:15:47;96643.56;;;11.86;88.86
14242;BME280;7205;50.864;12.766;2023-04-15T11:18:17;96633.19;;;11.84;89.15
14242;BME280;7205;50.864;12.766;2023-04-15T11:20:45;96636.41;;;11.93;90.37
14242;BME280;7205;50.864;12.766;2023-04-15T11:23:13;96633.72;;;12.06;90.77
14242;BME280;7205;50.864;12.766;2023-04-15T11:25:40;96640.41;;;12.15;90.64
14242;BME280;7205;50.864;12.766;2023-04-15T11:28:08;96631.22;;;12.17;90.19
14242;BME280;7205;50.864;12.766;2023-04-15T11:30:36;96632.69;;;12.13;88.33
14242;BME280;7205;50.864;12.766;2023-04-15T11:33:05;96630.06;;;12.07;87.31
14242;BME280;7205;50.864;12.766;2023-04-15T11:35:34;96630.31;;;11.99;87.18
14242;BME280;7205;50.864;12.766;2023-04-15T11:38:02;96641.91;;;11.91;86.39
14242;BME280;7205;50.864;12.766;2023-04-15T11:40:30;96641.72;;;11.86;86.92
14242;BME280;7205;50.864;12.766;2023-04-15T11:43:05;96649.25;;;11.83;86.61
14242;BME280;7205;50.864;12.766;2023-04-15T11:45:32;96651.09;;;11.82;86.74
14242;BME280;7205;50.864;12.766;2023-04-15T11:48:05;96653.34;;;11.85;87.55
14242;BME280;7205;50.864;12.766;2023-04-15T11:50:34;96660.44;;;11.91;87.34
14242;BME280;7205;50.864;12.766;2023-04-15T11:53:02;96663.09;;;11.91;87.36
14242;BME280;7205;50.864;12.766;2023-04-15T11:55:30;96656.97;;;11.91;86.80
14242;BME280;7205;50.864;12.766;2023-04-15T11:58:10;96668.78;;;11.95;87.49
14242;BME280;7205;50.864;12.766;2023-04-15T12:00:38;96673.22;;;12.01;87.99
14242;BME280;7205;50.864;12.766;2023-04-15T12:03:12;96673.03;;;12.09;87.65
14242;BME280;7205;50.864;12.766;2023-04-15T12:06:12;96667.91;;;12.14;87.07
14242;BME280;7205;50.864;12.766;2023-04-15T12:08:57;96669.31;;;12.16;86.59
14242;BME280;7205;50.864;12.766;2023-04-15T12:11:43;96670.56;;;12.14;85.78
14242;BME280;7205;50.864;12.766;2023-04-15T12:14:20;96684.59;;;12.08;85.52
14242;BME280;7205;50.864;12.766;2023-04-15T12:16:48;96683.41;;;11.97;84.88
14242;BME280;7205;50.864;12.766;2023-04-15T12:19:18;96681.63;;;11.85;84.37
14242;BME280;7205;50.864;12.766;2023-04-15T12:21:49;96683.88;;;11.75;84.67
14242;BME280;7205;50.864;12.766;2023-04-15T12:24:20;96687.13;;;11.70;85.00
14242;BME280;7205;50.864;12.766;2023-04-15T12:26:48;96684.72;;;11.69;85.20
14242;BME280;7205;50.864;12.766;2023-04-15T12:29:16;96688.75;;;11.71;86.26
14242;BME280;7205;50.864;12.766;2023-04-15T12:31:48;96696.69;;;11.78;86.64
14242;BME280;7205;50.864;12.766;2023-04-15T12:34:16;96696.06;;;11.89;87.71
14242;BME280;7205;50.864;12.766;2023-04-15T12:36:44;96702.53;;;11.99;87.90
14242;BME280;7205;50.864;12.766;2023-04-15T12:39:12;96699.66;;;12.07;87.25
14242;BME280;7205;50.864;12.766;2023-04-15T12:41:39;96696.41;;;12.12;87.26
14242;BME280;7205;50.864;12.766;2023-04-15T12:44:06;96698.63;;;12.15;86.75
14242;BME280;7205;50.864;12.766;2023-04-15T12:46:36;96700.06;;;12.11;85.35
14242;BME280;7205;50.864;12.766;2023-04-15T12:49:03;96708.84;;;12.05;84.82
14242;BME280;7205;50.864;12.766;2023-04-15T12:51:30;96712.53;;;12.04;84.61
14242;BME280;7205;50.864;12.766;2023-04-15T12:53:57;96719.63;;;12.03;84.95
14242;BME280;7205;50.864;12.766;2023-04-15T12:56:25;96719.63;;;12.03;85.06
14242;BME280;7205;50.864;12.766;2023-04-15T12:58:52;96721.47;;;12.03;84.41
14242;BME280;7205;50.864;12.766;2023-04-15T13:01:19;96729.81;;;12.00;84.31
14242;BME280;7205;50.864;12.766;2023-04-15T13:03:46;96727.81;;;11.95;84.10
14242;BME280;7205;50.864;12.766;2023-04-15T13:06:14;96732.06;;;11.90;84.50
14242;BME280;7205;50.864;12.766;2023-04-15T13:08:41;96738.19;;;11.84;84.33